THY5UH LTFJ-LTBJ
Flight info
| Callsign | THY5UH |
|---|---|
| Flight time | N/A |
| Altitude | 28000 |
| Route | ROXUK T409 NUMTI DCT KULAR |
| Aircraft | B738/M-SDE2E3FGHIRWXY/LB1 |
Departure
| Time | N/A |
|---|---|
| Airport | Istanbul Sabiha Gökçen International Airport (LTFJ) |
Arrival
| Time | 2026-05-04 18:42 |
|---|---|
| Airport | Adnan Menderes International Airport (LTBJ) |
| Time | Latitude | Longitude | Altitude | Speed | Heading |
|---|---|---|---|---|---|
| 2026-05-04 18:01 | 40.41166 | 29.43795 | 22955 ft | 428 kts | 133° |
| 2026-05-04 18:01 | 40.38829 | 29.46276 | 23675 ft | 432 kts | 133° |
| 2026-05-04 18:02 | 40.34114 | 29.51315 | 25167 ft | 440 kts | 133° |
| 2026-05-04 18:02 | 40.31706 | 29.53868 | 25872 ft | 445 kts | 133° |
| 2026-05-04 18:02 | 40.29276 | 29.56432 | 26554 ft | 450 kts | 134° |
| 2026-05-04 18:02 | 40.26815 | 29.59014 | 27227 ft | 456 kts | 134° |
| 2026-05-04 18:03 | 40.24306 | 29.61593 | 27877 ft | 461 kts | 136° |
| 2026-05-04 18:03 | 40.21601 | 29.63976 | 28047 ft | 471 kts | 143° |
| 2026-05-04 18:03 | 40.18535 | 29.65698 | 28040 ft | 477 kts | 158° |
| 2026-05-04 18:03 | 40.15308 | 29.66718 | 28038 ft | 479 kts | 165° |
| 2026-05-04 18:04 | 40.08631 | 29.68135 | 28025 ft | 489 kts | 167° |
| 2026-05-04 18:04 | 40.01780 | 29.69412 | 28011 ft | 503 kts | 168° |
| 2026-05-04 18:05 | 39.98275 | 29.70075 | 28003 ft | 509 kts | 168° |
| 2026-05-04 18:05 | 39.94722 | 29.70597 | 27997 ft | 515 kts | 174° |
| 2026-05-04 18:05 | 39.91125 | 29.70432 | 27981 ft | 516 kts | 185° |
| 2026-05-04 18:05 | 39.87653 | 29.69572 | 27976 ft | 514 kts | 194° |
| 2026-05-04 18:06 | 39.81277 | 29.66092 | 27986 ft | 497 kts | 209° |
| 2026-05-04 18:06 | 39.78237 | 29.63855 | 27987 ft | 502 kts | 212° |
| 2026-05-04 18:06 | 39.75262 | 29.61525 | 27984 ft | 491 kts | 213° |
| 2026-05-04 18:07 | 39.72375 | 29.59205 | 27996 ft | 489 kts | 213° |
| 2026-05-04 18:07 | 39.69462 | 29.56849 | 27991 ft | 491 kts | 213° |
| 2026-05-04 18:07 | 39.66550 | 29.54501 | 27999 ft | 493 kts | 213° |
| 2026-05-04 18:07 | 39.63610 | 29.52144 | 28001 ft | 493 kts | 213° |
| 2026-05-04 18:08 | 39.57909 | 29.47376 | 28014 ft | 486 kts | 216° |
| 2026-05-04 18:08 | 39.52307 | 29.42503 | 28013 ft | 487 kts | 216° |
| 2026-05-04 18:09 | 39.41076 | 29.32781 | 28022 ft | 492 kts | 215° |
| 2026-05-04 18:10 | 39.35416 | 29.27948 | 28022 ft | 485 kts | 215° |
| 2026-05-04 18:10 | 39.29722 | 29.23112 | 28026 ft | 490 kts | 215° |
| 2026-05-04 18:11 | 39.23972 | 29.18239 | 28016 ft | 495 kts | 215° |
| 2026-05-04 18:11 | 39.18133 | 29.13304 | 28016 ft | 499 kts | 215° |
| 2026-05-04 18:12 | 39.12403 | 29.08475 | 28006 ft | 494 kts | 215° |
| 2026-05-04 18:12 | 39.06646 | 29.03634 | 28012 ft | 497 kts | 215° |
| 2026-05-04 18:13 | 39.00800 | 28.98726 | 28009 ft | 500 kts | 215° |
| 2026-05-04 18:14 | 38.92092 | 28.91436 | 28026 ft | 497 kts | 215° |
| 2026-05-04 18:14 | 38.86207 | 28.86519 | 28026 ft | 494 kts | 215° |
| 2026-05-04 18:15 | 38.74730 | 28.76967 | 28047 ft | 487 kts | 215° |
| 2026-05-04 18:16 | 38.69056 | 28.72256 | 28047 ft | 495 kts | 215° |
| 2026-05-04 18:16 | 38.63266 | 28.67315 | 28043 ft | 497 kts | 219° |
| 2026-05-04 18:17 | 38.58651 | 28.61022 | 28045 ft | 479 kts | 242° |
| 2026-05-04 18:17 | 38.57120 | 28.57250 | 28048 ft | 479 kts | 252° |
| 2026-05-04 18:18 | 38.54152 | 28.45074 | 28045 ft | 471 kts | 260° |
| 2026-05-04 18:18 | 38.52489 | 28.36920 | 27859 ft | 482 kts | 261° |
| 2026-05-04 18:18 | 38.51645 | 28.32785 | 27305 ft | 497 kts | 259° |
| 2026-05-04 18:19 | 38.49923 | 28.24453 | 25783 ft | 469 kts | 261° |
| 2026-05-04 18:19 | 38.49237 | 28.20445 | 25166 ft | 452 kts | 263° |
| 2026-05-04 18:19 | 38.48698 | 28.16830 | 24273 ft | 435 kts | 265° |
| 2026-05-04 18:20 | 38.48158 | 28.12904 | 23060 ft | 425 kts | 265° |
| 2026-05-04 18:20 | 38.47676 | 28.09244 | 21869 ft | 417 kts | 265° |
| 2026-05-04 18:20 | 38.47210 | 28.05695 | 21136 ft | 398 kts | 266° |
| 2026-05-04 18:20 | 38.46761 | 28.02342 | 20814 ft | 380 kts | 266° |
| 2026-05-04 18:21 | 38.46312 | 27.98943 | 20412 ft | 400 kts | 266° |
| 2026-05-04 18:21 | 38.45840 | 27.95395 | 19834 ft | 407 kts | 265° |
| 2026-05-04 18:21 | 38.45361 | 27.91923 | 19293 ft | 400 kts | 265° |
| 2026-05-04 18:21 | 38.44868 | 27.88470 | 18820 ft | 391 kts | 265° |
| 2026-05-04 18:22 | 38.44375 | 27.85062 | 18568 ft | 392 kts | 265° |
| 2026-05-04 18:22 | 38.43877 | 27.81643 | 18314 ft | 392 kts | 265° |
| 2026-05-04 18:22 | 38.43370 | 27.78206 | 17963 ft | 380 kts | 265° |
| 2026-05-04 18:22 | 38.42889 | 27.74978 | 17506 ft | 372 kts | 265° |
| 2026-05-04 18:23 | 38.42409 | 27.71752 | 17001 ft | 365 kts | 265° |
| 2026-05-04 18:23 | 38.41943 | 27.68601 | 16480 ft | 360 kts | 265° |
| 2026-05-04 18:23 | 38.41487 | 27.65508 | 15975 ft | 358 kts | 266° |
| 2026-05-04 18:23 | 38.41035 | 27.62384 | 15440 ft | 369 kts | 265° |
| 2026-05-04 18:24 | 38.40570 | 27.59183 | 14891 ft | 364 kts | 265° |
| 2026-05-04 18:24 | 38.40105 | 27.56041 | 14347 ft | 358 kts | 265° |
| 2026-05-04 18:24 | 38.39644 | 27.52953 | 13821 ft | 351 kts | 265° |
| 2026-05-04 18:24 | 38.39191 | 27.49898 | 13293 ft | 345 kts | 266° |
| 2026-05-04 18:25 | 38.38746 | 27.46917 | 12768 ft | 340 kts | 266° |
| 2026-05-04 18:25 | 38.38307 | 27.43979 | 12257 ft | 334 kts | 266° |
| 2026-05-04 18:25 | 38.37898 | 27.41248 | 11786 ft | 330 kts | 266° |
| 2026-05-04 18:25 | 38.37471 | 27.38394 | 11303 ft | 326 kts | 266° |
| 2026-05-04 18:26 | 38.37048 | 27.35584 | 10898 ft | 314 kts | 266° |
| 2026-05-04 18:26 | 38.36639 | 27.32904 | 10676 ft | 295 kts | 266° |
| 2026-05-04 18:26 | 38.36262 | 27.30441 | 10555 ft | 276 kts | 266° |
| 2026-05-04 18:26 | 38.35927 | 27.28228 | 10451 ft | 266 kts | 267° |
| 2026-05-04 18:27 | 38.35589 | 27.25935 | 10320 ft | 264 kts | 267° |
| 2026-05-04 18:27 | 38.35252 | 27.23640 | 10011 ft | 262 kts | 267° |
| 2026-05-04 18:27 | 38.34910 | 27.21351 | 9714 ft | 260 kts | 267° |
| 2026-05-04 18:27 | 38.34590 | 27.19227 | 9428 ft | 258 kts | 267° |
| 2026-05-04 18:28 | 38.34245 | 27.16955 | 9098 ft | 256 kts | 266° |
| 2026-05-04 18:28 | 38.33904 | 27.14708 | 8752 ft | 256 kts | 266° |
| 2026-05-04 18:28 | 38.33576 | 27.12548 | 8401 ft | 257 kts | 266° |
| 2026-05-04 18:28 | 38.33173 | 27.10326 | 8012 ft | 263 kts | 255° |
| 2026-05-04 18:29 | 38.32101 | 27.08396 | 7637 ft | 274 kts | 224° |
| 2026-05-04 18:29 | 38.30533 | 27.06975 | 7271 ft | 276 kts | 215° |
| 2026-05-04 18:29 | 38.28977 | 27.05725 | 6910 ft | 277 kts | 214° |
| 2026-05-04 18:29 | 38.27365 | 27.04436 | 6537 ft | 277 kts | 214° |
| 2026-05-04 18:30 | 38.24084 | 27.01816 | 5799 ft | 275 kts | 212° |
| 2026-05-04 18:30 | 38.22254 | 27.01044 | 5398 ft | 277 kts | 181° |
| 2026-05-04 18:30 | 38.20360 | 27.01449 | 5038 ft | 273 kts | 160° |
| 2026-05-04 18:31 | 38.18535 | 27.02149 | 4647 ft | 273 kts | 162° |
| 2026-05-04 18:31 | 38.16734 | 27.02802 | 4251 ft | 265 kts | 162° |
| 2026-05-04 18:31 | 38.15009 | 27.03421 | 4078 ft | 248 kts | 162° |
| 2026-05-04 18:31 | 38.13377 | 27.04008 | 4113 ft | 239 kts | 162° |
| 2026-05-04 18:32 | 38.11792 | 27.04570 | 4110 ft | 233 kts | 162° |
| 2026-05-04 18:32 | 38.10222 | 27.05122 | 4118 ft | 234 kts | 162° |
| 2026-05-04 18:32 | 38.08646 | 27.05679 | 3962 ft | 233 kts | 162° |
| 2026-05-04 18:32 | 38.07091 | 27.06226 | 3761 ft | 228 kts | 162° |
| 2026-05-04 18:33 | 38.05580 | 27.06758 | 3562 ft | 223 kts | 163° |
| 2026-05-04 18:33 | 38.04065 | 27.07295 | 3393 ft | 228 kts | 162° |
| 2026-05-04 18:33 | 38.02551 | 27.07846 | 3296 ft | 220 kts | 160° |
| 2026-05-04 18:33 | 38.01299 | 27.08817 | 3095 ft | 207 kts | 123° |
| 2026-05-04 18:34 | 38.00885 | 27.10429 | 3014 ft | 190 kts | 81° |
| 2026-05-04 18:34 | 38.01009 | 27.12132 | 3012 ft | 196 kts | 77° |
| 2026-05-04 18:34 | 38.01162 | 27.13846 | 3010 ft | 194 kts | 73° |
| 2026-05-04 18:34 | 38.01593 | 27.15458 | 3012 ft | 189 kts | 58° |
| 2026-05-04 18:35 | 38.02232 | 27.16908 | 3010 ft | 190 kts | 52° |
| 2026-05-04 18:35 | 38.02993 | 27.18288 | 3010 ft | 189 kts | 46° |
| 2026-05-04 18:35 | 38.03951 | 27.19412 | 3007 ft | 184 kts | 22° |
| 2026-05-04 18:35 | 38.05195 | 27.19792 | 3014 ft | 182 kts | 6° |
| 2026-05-04 18:36 | 38.06440 | 27.20100 | 3019 ft | 182 kts | 12° |
| 2026-05-04 18:36 | 38.07650 | 27.20571 | 3007 ft | 182 kts | 15° |
| 2026-05-04 18:36 | 38.08860 | 27.21077 | 3011 ft | 176 kts | 15° |
| 2026-05-04 18:36 | 38.10014 | 27.21451 | 3004 ft | 166 kts | 3° |
| 2026-05-04 18:37 | 38.11159 | 27.21240 | 3014 ft | 166 kts | 345° |
| 2026-05-04 18:37 | 38.12281 | 27.20824 | 3009 ft | 167 kts | 346° |
| 2026-05-04 18:37 | 38.13403 | 27.20480 | 3011 ft | 165 kts | 347° |
| 2026-05-04 18:37 | 38.14546 | 27.20143 | 2923 ft | 159 kts | 347° |
| 2026-05-04 18:38 | 38.15613 | 27.19817 | 2805 ft | 155 kts | 347° |
| 2026-05-04 18:38 | 38.16647 | 27.19496 | 2715 ft | 151 kts | 347° |
| 2026-05-04 18:38 | 38.17668 | 27.19183 | 2624 ft | 149 kts | 346° |
| 2026-05-04 18:38 | 38.18671 | 27.18877 | 2499 ft | 144 kts | 347° |
| 2026-05-04 18:39 | 38.19598 | 27.18594 | 2294 ft | 128 kts | 346° |
| 2026-05-04 18:39 | 38.20416 | 27.18346 | 2163 ft | 117 kts | 347° |
| 2026-05-04 18:39 | 38.21182 | 27.18094 | 1848 ft | 118 kts | 343° |
| 2026-05-04 18:39 | 38.21978 | 27.17786 | 1524 ft | 116 kts | 342° |
| 2026-05-04 18:40 | 38.22743 | 27.17472 | 1322 ft | 114 kts | 343° |
| 2026-05-04 18:40 | 38.23518 | 27.17207 | 1225 ft | 114 kts | 346° |
| 2026-05-04 18:40 | 38.24311 | 27.16982 | 1181 ft | 116 kts | 346° |
| 2026-05-04 18:40 | 38.25079 | 27.16757 | 1053 ft | 117 kts | 346° |
| 2026-05-04 18:41 | 38.25881 | 27.16512 | 865 ft | 117 kts | 346° |
| 2026-05-04 18:41 | 38.26672 | 27.16275 | 700 ft | 118 kts | 345° |
| 2026-05-04 18:41 | 38.27457 | 27.16027 | 509 ft | 117 kts | 345° |
| 2026-05-04 18:41 | 38.28239 | 27.15782 | 389 ft | 106 kts | 345° |
| 2026-05-04 18:42 | 38.28717 | 27.15634 | 399 ft | 34 kts | 347° |
| 2026-05-04 18:42 | 38.28979 | 27.15558 | 402 ft | 37 kts | 346° |